sensor_id;sensor_type;location;lat;lon;timestamp;temperature;humidity
15298;DHT22;7750;48.796;9.026;2023-12-28T00:01:05;11.00;52.70
15298;DHT22;7750;48.796;9.026;2023-12-28T00:06:06;11.00;52.70
15298;DHT22;7750;48.796;9.026;2023-12-28T00:11:07;11.00;52.40
15298;DHT22;7750;48.796;9.026;2023-12-28T00:16:08;11.00;52.70
15298;DHT22;7750;48.796;9.026;2023-12-28T00:21:08;11.10;52.50
15298;DHT22;7750;48.796;9.026;2023-12-28T00:26:09;11.10;52.10
15298;DHT22;7750;48.796;9.026;2023-12-28T00:31:09;11.10;52.30
15298;DHT22;7750;48.796;9.026;2023-12-28T00:36:10;11.10;52.10
15298;DHT22;7750;48.796;9.026;2023-12-28T00:41:10;11.20;52.10
15298;DHT22;7750;48.796;9.026;2023-12-28T00:46:11;11.20;52.00
15298;DHT22;7750;48.796;9.026;2023-12-28T00:51:13;11.20;51.90
15298;DHT22;7750;48.796;9.026;2023-12-28T00:56:15;11.20;52.00
15298;DHT22;7750;48.796;9.026;2023-12-28T01:01:15;11.20;51.70
15298;DHT22;7750;48.796;9.026;2023-12-28T01:11:29;11.40;51.70
15298;DHT22;7750;48.796;9.026;2023-12-28T01:16:29;11.40;51.90
15298;DHT22;7750;48.796;9.026;2023-12-28T01:21:30;11.40;51.90
15298;DHT22;7750;48.796;9.026;2023-12-28T01:26:31;11.40;51.90
15298;DHT22;7750;48.796;9.026;2023-12-28T01:31:31;11.40;51.50
15298;DHT22;7750;48.796;9.026;2023-12-28T01:36:32;11.50;51.50
15298;DHT22;7750;48.796;9.026;2023-12-28T01:41:33;11.60;51.20
15298;DHT22;7750;48.796;9.026;2023-12-28T01:46:33;11.60;50.50
15298;DHT22;7750;48.796;9.026;2023-12-28T01:51:34;11.70;50.80
15298;DHT22;7750;48.796;9.026;2023-12-28T01:56:37;11.80;50.80
15298;DHT22;7750;48.796;9.026;2023-12-28T02:01:38;11.80;50.30
15298;DHT22;7750;48.796;9.026;2023-12-28T02:06:39;11.90;50.40
15298;DHT22;7750;48.796;9.026;2023-12-28T02:11:40;11.90;50.30
15298;DHT22;7750;48.796;9.026;2023-12-28T02:16:51;11.90;50.30
15298;DHT22;7750;48.796;9.026;2023-12-28T02:21:54;12.00;50.20
15298;DHT22;7750;48.796;9.026;2023-12-28T02:26:55;11.90;50.40
15298;DHT22;7750;48.796;9.026;2023-12-28T02:32:01;11.90;50.00
15298;DHT22;7750;48.796;9.026;2023-12-28T02:37:06;12.00;50.00
15298;DHT22;7750;48.796;9.026;2023-12-28T02:42:07;11.90;50.20
15298;DHT22;7750;48.796;9.026;2023-12-28T02:47:08;12.00;50.30
15298;DHT22;7750;48.796;9.026;2023-12-28T02:52:08;12.00;49.90
15298;DHT22;7750;48.796;9.026;2023-12-28T02:57:09;12.00;50.00
15298;DHT22;7750;48.796;9.026;2023-12-28T03:02:09;12.00;49.90
15298;DHT22;7750;48.796;9.026;2023-12-28T03:07:10;12.00;49.90
15298;DHT22;7750;48.796;9.026;2023-12-28T03:12:10;12.00;49.80
15298;DHT22;7750;48.796;9.026;2023-12-28T03:17:11;12.00;49.90
15298;DHT22;7750;48.796;9.026;2023-12-28T03:22:12;12.00;50.00
15298;DHT22;7750;48.796;9.026;2023-12-28T03:27:14;12.00;49.90
15298;DHT22;7750;48.796;9.026;2023-12-28T03:32:14;12.10;49.70
15298;DHT22;7750;48.796;9.026;2023-12-28T03:37:16;12.10;49.60
15298;DHT22;7750;48.796;9.026;2023-12-28T03:42:16;12.20;49.60
15298;DHT22;7750;48.796;9.026;2023-12-28T03:47:17;12.20;49.40
15298;DHT22;7750;48.796;9.026;2023-12-28T03:52:17;12.20;49.40
15298;DHT22;7750;48.796;9.026;2023-12-28T03:57:18;12.30;49.10
15298;DHT22;7750;48.796;9.026;2023-12-28T04:02:19;12.40;49.10
15298;DHT22;7750;48.796;9.026;2023-12-28T04:07:19;12.40;49.00
15298;DHT22;7750;48.796;9.026;2023-12-28T04:12:20;12.50;48.90
15298;DHT22;7750;48.796;9.026;2023-12-28T04:17:21;12.50;49.00
15298;DHT22;7750;48.796;9.026;2023-12-28T04:22:21;12.50;49.30
15298;DHT22;7750;48.796;9.026;2023-12-28T04:27:22;12.50;48.90
15298;DHT22;7750;48.796;9.026;2023-12-28T04:32:22;12.50;48.90
15298;DHT22;7750;48.796;9.026;2023-12-28T04:37:24;12.50;48.90
15298;DHT22;7750;48.796;9.026;2023-12-28T04:42:27;12.50;48.80
15298;DHT22;7750;48.796;9.026;2023-12-28T04:47:27;12.60;49.10
15298;DHT22;7750;48.796;9.026;2023-12-28T04:52:28;12.60;49.40
15298;DHT22;7750;48.796;9.026;2023-12-28T04:57:28;12.60;49.20
15298;DHT22;7750;48.796;9.026;2023-12-28T05:02:29;12.70;49.30
15298;DHT22;7750;48.796;9.026;2023-12-28T05:07:30;12.70;49.20
15298;DHT22;7750;48.796;9.026;2023-12-28T05:12:30;12.70;49.70
15298;DHT22;7750;48.796;9.026;2023-12-28T05:17:31;12.70;49.40
15298;DHT22;7750;48.796;9.026;2023-12-28T05:22:31;12.70;49.60
15298;DHT22;7750;48.796;9.026;2023-12-28T05:27:32;12.60;49.70
15298;DHT22;7750;48.796;9.026;2023-12-28T05:32:33;12.60;50.00
15298;DHT22;7750;48.796;9.026;2023-12-28T05:37:33;12.60;50.30
15298;DHT22;7750;48.796;9.026;2023-12-28T05:42:34;12.60;50.70
15298;DHT22;7750;48.796;9.026;2023-12-28T05:47:34;12.60;51.00
15298;DHT22;7750;48.796;9.026;2023-12-28T05:52:35;12.70;51.40
15298;DHT22;7750;48.796;9.026;2023-12-28T05:57:36;12.70;52.30
15298;DHT22;7750;48.796;9.026;2023-12-28T06:02:36;12.70;52.50
15298;DHT22;7750;48.796;9.026;2023-12-28T06:07:37;12.70;53.00
15298;DHT22;7750;48.796;9.026;2023-12-28T06:12:38;12.80;53.60
15298;DHT22;7750;48.796;9.026;2023-12-28T06:17:38;12.90;54.50
15298;DHT22;7750;48.796;9.026;2023-12-28T06:22:39;13.00;55.20
15298;DHT22;7750;48.796;9.026;2023-12-28T06:27:40;13.10;55.50
15298;DHT22;7750;48.796;9.026;2023-12-28T06:32:43;13.20;56.60
15298;DHT22;7750;48.796;9.026;2023-12-28T06:37:44;13.30;55.90
15298;DHT22;7750;48.796;9.026;2023-12-28T06:42:44;13.40;56.10
15298;DHT22;7750;48.796;9.026;2023-12-28T06:47:45;13.50;55.90
15298;DHT22;7750;48.796;9.026;2023-12-28T06:52:45;13.50;55.80
15298;DHT22;7750;48.796;9.026;2023-12-28T06:57:46;13.60;56.20
15298;DHT22;7750;48.796;9.026;2023-12-28T07:02:48;13.60;56.60
15298;DHT22;7750;48.796;9.026;2023-12-28T07:07:48;13.70;57.30
15298;DHT22;7750;48.796;9.026;2023-12-28T07:12:49;13.80;57.30
15298;DHT22;7750;48.796;9.026;2023-12-28T07:17:50;13.80;57.50
15298;DHT22;7750;48.796;9.026;2023-12-28T07:22:50;13.80;57.80
15298;DHT22;7750;48.796;9.026;2023-12-28T07:27:51;13.90;58.10
15298;DHT22;7750;48.796;9.026;2023-12-28T07:32:51;13.90;57.90
15298;DHT22;7750;48.796;9.026;2023-12-28T07:37:52;13.90;57.80
15298;DHT22;7750;48.796;9.026;2023-12-28T07:42:53;13.90;57.40
15298;DHT22;7750;48.796;9.026;2023-12-28T07:47:53;14.00;57.10
15298;DHT22;7750;48.796;9.026;2023-12-28T07:52:54;14.00;56.80
15298;DHT22;7750;48.796;9.026;2023-12-28T07:57:55;14.00;56.70
15298;DHT22;7750;48.796;9.026;2023-12-28T08:02:56;14.00;57.00
15298;DHT22;7750;48.796;9.026;2023-12-28T08:07:56;14.10;56.60
15298;DHT22;7750;48.796;9.026;2023-12-28T08:12:57;14.10;56.60
15298;DHT22;7750;48.796;9.026;2023-12-28T08:17:57;14.10;56.60
15298;DHT22;7750;48.796;9.026;2023-12-28T08:22:58;14.10;56.30
15298;DHT22;7750;48.796;9.026;2023-12-28T08:27:58;14.10;56.90
15298;DHT22;7750;48.796;9.026;2023-12-28T08:32:59;14.10;57.00
15298;DHT22;7750;48.796;9.026;2023-12-28T08:38:00;14.00;56.50
15298;DHT22;7750;48.796;9.026;2023-12-28T08:43:00;14.00;56.20
15298;DHT22;7750;48.796;9.026;2023-12-28T08:48:02;14.00;56.40
15298;DHT22;7750;48.796;9.026;2023-12-28T08:53:03;14.00;56.70
15298;DHT22;7750;48.796;9.026;2023-12-28T08:58:03;14.00;56.50
15298;DHT22;7750;48.796;9.026;2023-12-28T09:03:04;14.00;57.10
15298;DHT22;7750;48.796;9.026;2023-12-28T09:08:05;14.00;59.20
15298;DHT22;7750;48.796;9.026;2023-12-28T09:13:06;13.90;59.90
15298;DHT22;7750;48.796;9.026;2023-12-28T09:18:06;13.90;60.60
15298;DHT22;7750;48.796;9.026;2023-12-28T09:23:07;13.90;60.70
15298;DHT22;7750;48.796;9.026;2023-12-28T09:28:09;13.80;61.20
15298;DHT22;7750;48.796;9.026;2023-12-28T09:33:10;13.80;61.60
15298;DHT22;7750;48.796;9.026;2023-12-28T09:38:11;13.80;61.70
15298;DHT22;7750;48.796;9.026;2023-12-28T09:43:24;13.80;62.10
15298;DHT22;7750;48.796;9.026;2023-12-28T09:48:28;13.80;62.20
15298;DHT22;7750;48.796;9.026;2023-12-28T09:53:29;13.80;62.00
15298;DHT22;7750;48.796;9.026;2023-12-28T09:58:30;13.80;61.70
15298;DHT22;7750;48.796;9.026;2023-12-28T10:03:33;13.90;61.30
15298;DHT22;7750;48.796;9.026;2023-12-28T10:08:34;13.90;61.40
15298;DHT22;7750;48.796;9.026;2023-12-28T10:13:38;13.90;60.40
15298;DHT22;7750;48.796;9.026;2023-12-28T10:18:43;13.90;60.80
15298;DHT22;7750;48.796;9.026;2023-12-28T10:23:44;14.00;60.90
15298;DHT22;7750;48.796;9.026;2023-12-28T10:28:44;14.00;60.30
15298;DHT22;7750;48.796;9.026;2023-12-28T10:33:45;14.10;60.60
15298;DHT22;7750;48.796;9.026;2023-12-28T10:38:47;14.10;61.00
15298;DHT22;7750;48.796;9.026;2023-12-28T10:44:04;14.10;61.00
15298;DHT22;7750;48.796;9.026;2023-12-28T10:49:14;14.20;60.80
15298;DHT22;7750;48.796;9.026;2023-12-28T10:54:47;14.20;60.40
15298;DHT22;7750;48.796;9.026;2023-12-28T11:05:07;14.40;60.50
15298;DHT22;7750;48.796;9.026;2023-12-28T11:10:10;14.40;61.10
15298;DHT22;7750;48.796;9.026;2023-12-28T11:15:12;14.40;60.50
15298;DHT22;7750;48.796;9.026;2023-12-28T11:20:14;14.50;60.90
15298;DHT22;7750;48.796;9.026;2023-12-28T11:25:16;14.50;61.10
15298;DHT22;7750;48.796;9.026;2023-12-28T11:30:17;14.50;61.50
15298;DHT22;7750;48.796;9.026;2023-12-28T11:35:18;14.50;61.50
15298;DHT22;7750;48.796;9.026;2023-12-28T11:40:19;14.50;61.80
15298;DHT22;7750;48.796;9.026;2023-12-28T11:45:24;14.50;61.70
15298;DHT22;7750;48.796;9.026;2023-12-28T11:50:28;14.50;62.40
15298;DHT22;7750;48.796;9.026;2023-12-28T11:55:29;14.50;61.90
15298;DHT22;7750;48.796;9.026;2023-12-28T12:11:36;14.50;61.50
15298;DHT22;7750;48.796;9.026;2023-12-28T12:16:38;14.50;61.40
15298;DHT22;7750;48.796;9.026;2023-12-28T12:21:39;14.60;61.50
15298;DHT22;7750;48.796;9.026;2023-12-28T12:26:40;14.60;62.00
15298;DHT22;7750;48.796;9.026;2023-12-28T12:31:42;14.60;62.40
15298;DHT22;7750;48.796;9.026;2023-12-28T12:36:44;14.60;63.10
15298;DHT22;7750;48.796;9.026;2023-12-28T12:47:01;14.60;63.50
15298;DHT22;7750;48.796;9.026;2023-12-28T12:52:02;14.50;63.50
15298;DHT22;7750;48.796;9.026;2023-12-28T12:57:03;14.50;63.90
15298;DHT22;7750;48.796;9.026;2023-12-28T13:02:10;14.50;64.10
15298;DHT22;7750;48.796;9.026;2023-12-28T13:07:17;14.50;64.80
15298;DHT22;7750;48.796;9.026;2023-12-28T13:12:18;14.50;65.30
15298;DHT22;7750;48.796;9.026;2023-12-28T13:17:18;14.50;64.70
15298;DHT22;7750;48.796;9.026;2023-12-28T13:22:19;14.50;65.20
15298;DHT22;7750;48.796;9.026;2023-12-28T13:37:40;14.40;66.20
15298;DHT22;7750;48.796;9.026;2023-12-28T13:42:42;14.40;65.70
15298;DHT22;7750;48.796;9.026;2023-12-28T13:52:46;14.30;66.10
15298;DHT22;7750;48.796;9.026;2023-12-28T14:03:43;14.30;66.90
15298;DHT22;7750;48.796;9.026;2023-12-28T14:24:17;14.20;67.30
15298;DHT22;7750;48.796;9.026;2023-12-28T14:29:21;14.20;67.70
15298;DHT22;7750;48.796;9.026;2023-12-28T14:55:05;14.10;67.40
15298;DHT22;7750;48.796;9.026;2023-12-28T15:00:07;14.10;67.00
15298;DHT22;7750;48.796;9.026;2023-12-28T15:05:10;14.10;67.00
15298;DHT22;7750;48.796;9.026;2023-12-28T15:10:13;14.10;67.00
15298;DHT22;7750;48.796;9.026;2023-12-28T15:20:27;14.10;67.10
15298;DHT22;7750;48.796;9.026;2023-12-28T15:25:28;14.10;67.30
15298;DHT22;7750;48.796;9.026;2023-12-28T15:30:29;14.10;66.70
15298;DHT22;7750;48.796;9.026;2023-12-28T15:35:29;14.00;67.30
15298;DHT22;7750;48.796;9.026;2023-12-28T15:40:30;14.00;67.60
15298;DHT22;7750;48.796;9.026;2023-12-28T15:45:30;13.90;67.80
15298;DHT22;7750;48.796;9.026;2023-12-28T15:55:35;13.80;67.90
15298;DHT22;7750;48.796;9.026;2023-12-28T16:05:43;13.80;67.90
15298;DHT22;7750;48.796;9.026;2023-12-28T16:21:07;13.60;67.70
15298;DHT22;7750;48.796;9.026;2023-12-28T16:31:19;13.70;68.10
15298;DHT22;7750;48.796;9.026;2023-12-28T16:36:21;13.60;67.90
15298;DHT22;7750;48.796;9.026;2023-12-28T16:41:23;13.50;67.90
15298;DHT22;7750;48.796;9.026;2023-12-28T16:46:27;13.50;68.10
15298;DHT22;7750;48.796;9.026;2023-12-28T16:51:28;13.40;67.90
15298;DHT22;7750;48.796;9.026;2023-12-28T16:56:32;13.40;68.00
15298;DHT22;7750;48.796;9.026;2023-12-28T17:01:34;13.40;68.30
15298;DHT22;7750;48.796;9.026;2023-12-28T17:06:38;13.40;68.30
15298;DHT22;7750;48.796;9.026;2023-12-28T17:11:42;13.40;68.30
15298;DHT22;7750;48.796;9.026;2023-12-28T17:16:44;13.40;68.60
15298;DHT22;7750;48.796;9.026;2023-12-28T17:21:45;13.40;68.70
15298;DHT22;7750;48.796;9.026;2023-12-28T17:26:51;13.30;68.60
15298;DHT22;7750;48.796;9.026;2023-12-28T17:31:55;13.30;69.00
15298;DHT22;7750;48.796;9.026;2023-12-28T17:36:58;13.30;68.90
15298;DHT22;7750;48.796;9.026;2023-12-28T17:42:00;13.20;69.40
15298;DHT22;7750;48.796;9.026;2023-12-28T17:47:07;13.20;69.60
15298;DHT22;7750;48.796;9.026;2023-12-28T17:52:10;13.20;69.80
15298;DHT22;7750;48.796;9.026;2023-12-28T17:57:12;13.20;70.10
15298;DHT22;7750;48.796;9.026;2023-12-28T18:02:13;13.10;70.00
15298;DHT22;7750;48.796;9.026;2023-12-28T18:07:13;13.10;70.40
15298;DHT22;7750;48.796;9.026;2023-12-28T18:12:14;13.10;70.80
15298;DHT22;7750;48.796;9.026;2023-12-28T18:17:17;13.10;70.60
15298;DHT22;7750;48.796;9.026;2023-12-28T18:22:17;13.10;71.10
15298;DHT22;7750;48.796;9.026;2023-12-28T18:27:18;13.00;71.50
15298;DHT22;7750;48.796;9.026;2023-12-28T18:32:19;13.00;71.40
15298;DHT22;7750;48.796;9.026;2023-12-28T18:37:21;13.00;71.40
15298;DHT22;7750;48.796;9.026;2023-12-28T18:42:21;12.90;72.00
15298;DHT22;7750;48.796;9.026;2023-12-28T18:47:22;12.90;72.70
15298;DHT22;7750;48.796;9.026;2023-12-28T18:52:22;12.90;71.90
15298;DHT22;7750;48.796;9.026;2023-12-28T18:57:23;12.90;72.10
15298;DHT22;7750;48.796;9.026;2023-12-28T19:02:24;12.80;72.50
15298;DHT22;7750;48.796;9.026;2023-12-28T19:07:26;12.80;73.00
15298;DHT22;7750;48.796;9.026;2023-12-28T19:12:27;12.80;73.10
15298;DHT22;7750;48.796;9.026;2023-12-28T19:17:28;12.80;73.50
15298;DHT22;7750;48.796;9.026;2023-12-28T19:22:28;12.70;74.00
15298;DHT22;7750;48.796;9.026;2023-12-28T19:27:29;12.70;74.10
15298;DHT22;7750;48.796;9.026;2023-12-28T19:32:30;12.70;74.40
15298;DHT22;7750;48.796;9.026;2023-12-28T19:37:30;12.70;74.60
15298;DHT22;7750;48.796;9.026;2023-12-28T19:42:33;12.70;75.60
15298;DHT22;7750;48.796;9.026;2023-12-28T19:47:33;12.70;75.20
15298;DHT22;7750;48.796;9.026;2023-12-28T19:52:34;12.70;75.30
15298;DHT22;7750;48.796;9.026;2023-12-28T19:57:35;12.70;75.30
15298;DHT22;7750;48.796;9.026;2023-12-28T20:02:35;12.70;76.00
15298;DHT22;7750;48.796;9.026;2023-12-28T20:07:36;12.70;75.50
15298;DHT22;7750;48.796;9.026;2023-12-28T20:12:36;12.70;75.70
15298;DHT22;7750;48.796;9.026;2023-12-28T20:17:37;12.70;75.90
15298;DHT22;7750;48.796;9.026;2023-12-28T20:22:38;12.70;75.80
15298;DHT22;7750;48.796;9.026;2023-12-28T20:27:38;12.70;76.60
15298;DHT22;7750;48.796;9.026;2023-12-28T20:32:39;12.70;76.40
15298;DHT22;7750;48.796;9.026;2023-12-28T20:37:40;12.60;75.90
15298;DHT22;7750;48.796;9.026;2023-12-28T20:42:42;12.70;75.80
15298;DHT22;7750;48.796;9.026;2023-12-28T20:47:43;12.70;75.60
15298;DHT22;7750;48.796;9.026;2023-12-28T20:52:43;12.60;75.80
15298;DHT22;7750;48.796;9.026;2023-12-28T20:57:44;12.70;75.60
15298;DHT22;7750;48.796;9.026;2023-12-28T21:02:45;12.70;76.00
15298;DHT22;7750;48.796;9.026;2023-12-28T21:07:45;12.70;75.90
15298;DHT22;7750;48.796;9.026;2023-12-28T21:12:46;12.70;75.80
15298;DHT22;7750;48.796;9.026;2023-12-28T21:17:51;12.60;76.30
15298;DHT22;7750;48.796;9.026;2023-12-28T21:22:52;12.70;76.20
15298;DHT22;7750;48.796;9.026;2023-12-28T21:27:53;12.70;76.10
15298;DHT22;7750;48.796;9.026;2023-12-28T21:32:53;12.70;76.30
15298;DHT22;7750;48.796;9.026;2023-12-28T21:37:54;12.70;76.20
15298;DHT22;7750;48.796;9.026;2023-12-28T21:42:55;12.70;76.20
15298;DHT22;7750;48.796;9.026;2023-12-28T21:47:56;12.60;76.30
15298;DHT22;7750;48.796;9.026;2023-12-28T21:52:57;12.60;76.70
15298;DHT22;7750;48.796;9.026;2023-12-28T21:57:58;12.60;76.30
15298;DHT22;7750;48.796;9.026;2023-12-28T22:03:01;12.60;77.00
15298;DHT22;7750;48.796;9.026;2023-12-28T22:08:03;12.60;75.80
15298;DHT22;7750;48.796;9.026;2023-12-28T22:13:05;12.60;75.80
15298;DHT22;7750;48.796;9.026;2023-12-28T22:18:06;12.60;75.70
15298;DHT22;7750;48.796;9.026;2023-12-28T22:23:08;12.60;75.70
15298;DHT22;7750;48.796;9.026;2023-12-28T22:28:08;12.60;76.00
15298;DHT22;7750;48.796;9.026;2023-12-28T22:33:09;12.50;75.90
15298;DHT22;7750;48.796;9.026;2023-12-28T22:38:09;12.60;75.90
15298;DHT22;7750;48.796;9.026;2023-12-28T22:43:10;12.50;76.00
15298;DHT22;7750;48.796;9.026;2023-12-28T22:48:11;12.50;76.20
15298;DHT22;7750;48.796;9.026;2023-12-28T22:53:11;12.50;76.30
15298;DHT22;7750;48.796;9.026;2023-12-28T22:58:12;12.50;76.30
15298;DHT22;7750;48.796;9.026;2023-12-28T23:03:13;12.50;76.10
15298;DHT22;7750;48.796;9.026;2023-12-28T23:08:13;12.50;75.90
15298;DHT22;7750;48.796;9.026;2023-12-28T23:13:14;12.50;75.70
15298;DHT22;7750;48.796;9.026;2023-12-28T23:18:15;12.50;75.70
15298;DHT22;7750;48.796;9.026;2023-12-28T23:23:16;12.50;75.70
15298;DHT22;7750;48.796;9.026;2023-12-28T23:28:16;12.50;75.60
15298;DHT22;7750;48.796;9.026;2023-12-28T23:33:17;12.50;75.40
15298;DHT22;7750;48.796;9.026;2023-12-28T23:38:17;12.50;75.40
15298;DHT22;7750;48.796;9.026;2023-12-28T23:43:18;12.50;75.20
15298;DHT22;7750;48.796;9.026;2023-12-28T23:48:19;12.50;75.20
15298;DHT22;7750;48.796;9.026;2023-12-28T23:53:19;12.50;75.60
15298;DHT22;7750;48.796;9.026;2023-12-28T23:58:20;12.50;75.00
